Terminal Aerodrome Forecast
Issued by NWS

Home | Current Version | Previous Version | Text Only | Print | Product List | Glossary On
Versions: 1 2 3 4 5 6 7 8 9 10 11 12 13 14
549
FTUS41 KBTV 291135
TAFMPV
TAF
KMPV 291135Z 2912/3012 31004KT 1/4SM FG VV001
     FM291300 00000KT P6SM BKN015 BKN020
     FM291400 35005KT P6SM SCT020 BKN035
     FM291600 34007KT P6SM SCT035 BKN050
     FM291900 34007KT P6SM FEW080 SCT200
     FM300000 00000KT P6SM FEW250
     FM300600 00000KT 1SM BR FEW003=

USA.gov is the U.S. government's official web portal to all federal, state and local government web resources and services.